Time;durP1;ratioP1;P1;durP2;ratioP2;P2;SDS_P1;SDS_P2;PMS_P1;PMS_P2;Temp;Humidity;BMP_temperature;BMP_pressure;BME280_temperature;BME280_humidity;BME280_pressure;Samples;Min_cycle;Max_cycle;Signal;HPM_P1;HPM_P2
2022/05/09 00:01:51;;;;;;;;;;;;;;;12.51;67.29;97161.34;4880350;29;19959;-70
2022/05/09 00:04:16;;;;;;;;;;;;;;;12.49;67.48;97161.53;4880203;29;19991;-70
2022/05/09 00:06:42;;;;;;;;;;;;;;;12.47;67.49;97160.13;4880096;29;20004;-70
2022/05/09 00:09:08;;;;;;;;;;;;;;;12.46;67.63;97155.91;4880535;29;20411;-70
2022/05/09 00:11:34;;;;;;;;;;;;;;;12.44;68.28;97156.13;4879421;29;19990;-70
2022/05/09 00:14:01;;;;;;;;;;;;;;;12.42;67.99;97157.34;4879984;29;20013;-70
2022/05/09 00:16:33;;;;;;;;;;;;;;;12.41;68.43;97151.28;4879620;29;19970;-70
2022/05/09 00:18:59;;;;;;;;;;;;;;;12.38;68.09;97147.22;4879964;29;19966;-70
2022/05/09 00:21:25;;;;;;;;;;;;;;;12.37;68.72;97150.09;4879960;29;20436;-70
2022/05/09 00:23:51;;;;;;;;;;;;;;;12.35;69.02;97152.94;4880344;29;19970;-70
2022/05/09 00:26:17;;;;;;;;;;;;;;;12.34;69.29;97150.50;4879794;29;19980;-70
2022/05/09 00:28:43;;;;;;;;;;;;;;;12.30;69.10;97142.22;4879944;29;20305;-70
2022/05/09 00:31:09;;;;;;;;;;;;;;;12.27;68.05;97145.28;4879994;29;20310;-70
2022/05/09 00:33:35;;;;;;;;;;;;;;;12.24;69.88;97150.97;4879756;29;20377;-70
2022/05/09 00:36:01;;;;;;;;;;;;;;;12.20;70.53;97144.53;4879785;29;20011;-70
2022/05/09 00:38:28;;;;;;;;;;;;;;;12.18;71.60;97150.00;4880025;29;20012;-70
2022/05/09 00:43:39;;;;;;;;;;;;;;;12.11;69.76;97130.00;4879269;29;19964;-70
2022/05/09 00:46:05;;;;;;;;;;;;;;;12.08;70.96;97131.22;4880201;29;19970;-70
2022/05/09 00:48:31;;;;;;;;;;;;;;;12.05;70.98;97128.22;4879675;29;19950;-70
2022/05/09 00:50:58;;;;;;;;;;;;;;;12.00;71.85;97133.31;4879774;29;19987;-70
2022/05/09 00:53:25;;;;;;;;;;;;;;;11.95;71.67;97126.84;4879750;29;20320;-70
2022/05/09 00:55:54;;;;;;;;;;;;;;;11.93;71.02;97126.25;4879784;29;20298;-70
2022/05/09 00:58:40;;;;;;;;;;;;;;;11.92;72.81;97135.13;4879824;29;19952;-71
2022/05/09 01:01:09;;;;;;;;;;;;;;;11.91;71.99;97124.84;4879298;29;19958;-70
2022/05/09 01:03:38;;;;;;;;;;;;;;;11.89;73.50;97137.41;4879680;29;20434;-70
2022/05/09 01:06:04;;;;;;;;;;;;;;;11.88;73.18;97136.56;4879012;29;19980;-70
2022/05/09 01:08:31;;;;;;;;;;;;;;;11.89;72.12;97124.25;4879745;29;19953;-70
2022/05/09 01:10:58;;;;;;;;;;;;;;;11.89;72.85;97132.94;4879684;29;19965;-70
2022/05/09 01:13:25;;;;;;;;;;;;;;;11.88;73.09;97131.31;4879335;29;19956;-70
2022/05/09 01:15:53;;;;;;;;;;;;;;;11.88;72.92;97126.06;4878993;29;19954;-70
2022/05/09 01:18:19;;;;;;;;;;;;;;;11.89;73.19;97140.03;4879890;29;19954;-70
2022/05/09 01:20:45;;;;;;;;;;;;;;;11.88;73.28;97135.75;4879163;29;19983;-72
2022/05/09 01:23:11;;;;;;;;;;;;;;;11.86;73.35;97143.03;4879030;29;19972;-72
2022/05/09 01:25:38;;;;;;;;;;;;;;;11.83;73.51;97139.00;4878030;29;20148;-72
2022/05/09 01:28:04;;;;;;;;;;;;;;;11.81;73.41;97135.78;4883298;29;19959;-70
2022/05/09 01:30:43;;;;;;;;;;;;;;;11.79;73.29;97135.19;4882838;29;19957;-70
2022/05/09 01:33:14;;;;;;;;;;;;;;;11.79;72.68;97135.19;4882955;29;19965;-70
2022/05/09 01:35:54;;;;;;;;;;;;;;;11.75;72.72;97131.34;4882978;29;19964;-70
2022/05/09 01:38:35;;;;;;;;;;;;;;;11.73;73.16;97128.91;4875979;29;19961;-70
2022/05/09 01:41:01;;;;;;;;;;;;;;;11.70;72.74;97134.59;4882670;29;19957;-70
2022/05/09 01:43:40;;;;;;;;;;;;;;;11.69;72.73;97132.19;4882547;29;20356;-70
2022/05/09 01:46:08;;;;;;;;;;;;;;;11.66;72.42;97135.22;4882740;29;19970;-71
2022/05/09 01:51:19;;;;;;;;;;;;;;;11.63;74.88;97135.63;4882748;29;19963;-70
2022/05/09 01:53:49;;;;;;;;;;;;;;;11.61;75.40;97135.84;4882550;29;20331;-70
2022/05/09 01:56:16;;;;;;;;;;;;;;;11.60;73.87;97128.97;4882950;29;19969;-70
2022/05/09 01:58:42;;;;;;;;;;;;;;;11.60;74.54;97134.22;4882486;29;19964;-70
2022/05/09 02:01:08;;;;;;;;;;;;;;;11.58;72.91;97129.19;4882292;29;19973;-70
2022/05/09 02:03:34;;;;;;;;;;;;;;;11.54;73.86;97127.97;4882687;29;20006;-70
2022/05/09 02:06:00;;;;;;;;;;;;;;;11.53;74.91;97136.09;4882246;29;19980;-70
2022/05/09 02:08:26;;;;;;;;;;;;;;;11.52;74.96;97137.09;4882293;29;19962;-70
2022/05/09 02:10:52;;;;;;;;;;;;;;;11.49;75.29;97143.56;4882368;29;20498;-70
2022/05/09 02:13:18;;;;;;;;;;;;;;;11.49;74.68;97137.50;4882316;29;19968;-70
2022/05/09 02:15:44;;;;;;;;;;;;;;;11.47;74.43;97140.34;4882311;29;20293;-70
2022/05/09 02:18:10;;;;;;;;;;;;;;;11.46;74.72;97146.59;4882250;29;19961;-70
2022/05/09 02:20:36;;;;;;;;;;;;;;;11.44;74.62;97147.81;4881498;29;20458;-70
2022/05/09 02:23:02;;;;;;;;;;;;;;;11.41;74.43;97143.78;4881969;29;20050;-70
2022/05/09 02:25:31;;;;;;;;;;;;;;;11.39;75.19;97148.44;4882064;29;20006;-70
2022/05/09 02:27:57;;;;;;;;;;;;;;;11.35;75.47;97147.22;4881800;29;19963;-71
2022/05/09 02:30:23;;;;;;;;;;;;;;;11.35;76.89;97148.03;4882001;29;20399;-70
2022/05/09 02:32:49;;;;;;;;;;;;;;;11.35;75.68;97144.59;4881964;29;20015;-71
2022/05/09 02:35:15;;;;;;;;;;;;;;;11.32;76.67;97145.03;4881811;29;19963;-70
2022/05/09 02:37:41;;;;;;;;;;;;;;;11.30;75.96;97150.47;4880654;29;20332;-70
2022/05/09 02:40:07;;;;;;;;;;;;;;;11.29;76.22;97138.34;4880636;29;19958;-70
2022/05/09 02:42:34;;;;;;;;;;;;;;;11.28;76.25;97151.69;4881756;29;19967;-70
2022/05/09 02:45:00;;;;;;;;;;;;;;;11.27;76.16;97148.25;4881348;29;19979;-70
2022/05/09 02:47:26;;;;;;;;;;;;;;;11.25;76.05;97145.00;4881736;29;19968;-70
2022/05/09 02:49:53;;;;;;;;;;;;;;;11.28;75.88;97146.44;4881628;29;20052;-70
2022/05/09 02:52:18;;;;;;;;;;;;;;;11.26;75.65;97149.28;4881308;29;19968;-70
2022/05/09 02:54:44;;;;;;;;;;;;;;;11.26;75.67;97143.22;4881543;29;20329;-70
2022/05/09 02:57:11;;;;;;;;;;;;;;;11.24;75.09;97132.91;4881405;29;20331;-70
2022/05/09 02:59:37;;;;;;;;;;;;;;;11.20;74.87;97134.34;4881689;29;19961;-70
2022/05/09 03:02:03;;;;;;;;;;;;;;;11.17;76.02;97135.56;4881232;29;19967;-70
2022/05/09 03:04:41;;;;;;;;;;;;;;;11.16;75.67;97135.75;4881363;29;19958;-70
2022/05/09 03:07:07;;;;;;;;;;;;;;;11.14;75.55;97135.94;4881506;29;20354;-70
2022/05/09 03:09:33;;;;;;;;;;;;;;;11.15;75.59;97142.03;4880671;29;20092;-70
2022/05/09 03:11:59;;;;;;;;;;;;;;;11.14;75.89;97135.94;4881230;29;20007;-70
2022/05/09 03:14:25;;;;;;;;;;;;;;;11.14;76.71;97135.94;4881173;29;19959;-70
2022/05/09 03:16:50;;;;;;;;;;;;;;;11.13;75.88;97131.72;4892832;29;19965;-71
2022/05/09 03:19:16;;;;;;;;;;;;;;;11.14;75.42;97133.31;4881370;29;20054;-70
2022/05/09 03:21:42;;;;;;;;;;;;;;;11.14;75.39;97132.53;4885300;29;19984;-70
2022/05/09 03:24:08;;;;;;;;;;;;;;;11.12;75.47;97137.97;4895933;29;19969;-70
2022/05/09 03:26:34;;;;;;;;;;;;;;;11.12;75.88;97132.72;4891252;29;20447;-70
2022/05/09 03:29:18;;;;;;;;;;;;;;;11.10;76.31;97131.31;4889402;29;19963;-70
2022/05/09 03:31:48;;;;;;;;;;;;;;;11.07;75.95;97135.16;4890442;29;19960;-71
2022/05/09 03:34:14;;;;;;;;;;;;;;;11.06;76.00;97135.34;4875851;29;19957;-70
2022/05/09 03:36:40;;;;;;;;;;;;;;;11.04;75.52;97138.16;4886695;29;19956;-71
2022/05/09 03:39:06;;;;;;;;;;;;;;;11.00;75.87;97138.78;4892410;29;19966;-70
2022/05/09 03:41:32;;;;;;;;;;;;;;;10.99;76.00;97139.81;4894438;29;20330;-70
2022/05/09 03:43:58;;;;;;;;;;;;;;;10.97;75.67;97142.63;4891165;29;19970;-70
2022/05/09 03:46:24;;;;;;;;;;;;;;;10.94;76.06;97137.78;4885119;29;19989;-70
2022/05/09 03:48:50;;;;;;;;;;;;;;;10.91;76.49;97141.63;4892015;29;19954;-70
2022/05/09 03:51:16;;;;;;;;;;;;;;;10.91;76.97;97138.19;4892606;29;20029;-70
2022/05/09 03:53:42;;;;;;;;;;;;;;;10.91;76.73;97146.06;4886470;29;20003;-70
2022/05/09 03:56:08;;;;;;;;;;;;;;;10.90;76.94;97142.63;4886453;29;19976;-71
2022/05/09 03:58:34;;;;;;;;;;;;;;;10.91;76.32;97140.81;4873609;29;19949;-70
2022/05/09 04:01:00;;;;;;;;;;;;;;;10.90;75.81;97139.22;4889898;29;20420;-70
2022/05/09 04:03:26;;;;;;;;;;;;;;;10.89;76.12;97141.00;4890141;29;19952;-70
2022/05/09 04:05:52;;;;;;;;;;;;;;;10.88;75.62;97142.03;4886374;29;19961;-70
2022/05/09 04:08:20;;;;;;;;;;;;;;;10.85;75.39;97150.28;4889076;29;20342;-70
2022/05/09 04:10:47;;;;;;;;;;;;;;;10.82;75.31;97147.28;4889456;29;19949;-70
2022/05/09 04:13:13;;;;;;;;;;;;;;;10.81;75.46;97150.91;4894655;29;19956;-71
2022/05/09 04:18:27;;;;;;;;;;;;;;;10.77;75.86;97153.13;4885818;29;19958;-71
2022/05/09 04:20:53;;;;;;;;;;;;;;;10.76;75.42;97154.94;4879963;29;19978;-70
2022/05/09 04:23:19;;;;;;;;;;;;;;;10.75;75.63;97157.75;4880114;29;19972;-70
2022/05/09 04:25:45;;;;;;;;;;;;;;;10.71;75.47;97157.38;4879950;29;19973;-70
2022/05/09 04:28:11;;;;;;;;;;;;;;;10.69;75.61;97161.22;4880160;29;19980;-70
2022/05/09 04:30:38;;;;;;;;;;;;;;;10.70;75.77;97162.81;4879953;29;19950;-70
2022/05/09 04:33:04;;;;;;;;;;;;;;;10.76;76.03;97167.25;4879768;29;19969;-71
2022/05/09 04:35:31;;;;;;;;;;;;;;;10.86;76.07;97170.28;4880172;29;19968;-70
2022/05/09 04:37:57;;;;;;;;;;;;;;;10.96;76.15;97175.13;4879755;29;19961;-70
2022/05/09 04:40:25;;;;;;;;;;;;;;;11.08;76.62;97173.50;4879901;29;20034;-70
2022/05/09 04:42:51;;;;;;;;;;;;;;;11.24;75.64;97167.03;4879932;29;19953;-70
2022/05/09 04:45:18;;;;;;;;;;;;;;;11.41;76.52;97171.88;4879933;29;19968;-70
2022/05/09 04:47:45;;;;;;;;;;;;;;;11.61;76.75;97167.34;4879698;29;19999;-71
2022/05/09 04:50:13;;;;;;;;;;;;;;;11.83;76.83;97182.88;4879017;29;19971;-71
2022/05/09 04:52:39;;;;;;;;;;;;;;;12.07;76.03;97179.56;4879792;29;19980;-70
2022/05/09 04:55:05;;;;;;;;;;;;;;;12.33;74.74;97168.13;4879810;29;19972;-71
2022/05/09 04:57:40;;;;;;;;;;;;;;;12.61;74.31;97171.41;4879781;29;19958;-70
2022/05/09 05:00:08;;;;;;;;;;;;;;;12.86;73.79;97163.53;4879754;29;19965;-71
2022/05/09 05:02:34;;;;;;;;;;;;;;;13.16;73.32;97166.31;4882848;29;19955;-71
2022/05/09 05:05:00;;;;;;;;;;;;;;;13.44;72.03;97160.63;4883530;29;20009;-71
2022/05/09 05:07:25;;;;;;;;;;;;;;;13.73;71.72;97156.47;4883267;29;19974;-71
2022/05/09 05:09:52;;;;;;;;;;;;;;;14.01;70.25;97155.91;4883641;29;19956;-71
2022/05/09 05:12:18;;;;;;;;;;;;;;;14.27;69.67;97150.50;4883186;29;20416;-71
2022/05/09 05:14:44;;;;;;;;;;;;;;;14.56;68.99;97151.56;4883383;29;19954;-71
2022/05/09 05:17:11;;;;;;;;;;;;;;;14.82;68.34;97147.69;4883289;29;19966;-71
2022/05/09 05:19:40;;;;;;;;;;;;;;;15.09;67.61;97144.63;4883210;29;19957;-71
2022/05/09 05:22:07;;;;;;;;;;;;;;;15.36;66.84;97139.69;4883297;29;19986;-71
2022/05/09 05:24:36;;;;;;;;;;;;;;;15.59;65.71;97137.00;4883439;29;19959;-71
2022/05/09 05:27:03;;;;;;;;;;;;;;;15.79;65.58;97136.66;4882862;29;20379;-72
2022/05/09 05:29:29;;;;;;;;;;;;;;;16.00;64.66;97131.75;4873327;29;19959;-71
2022/05/09 05:31:55;;;;;;;;;;;;;;;16.17;64.33;97137.13;4883119;29;19965;-71
2022/05/09 05:34:21;;;;;;;;;;;;;;;16.34;63.56;97122.06;4883054;29;19960;-71
2022/05/09 05:36:50;;;;;;;;;;;;;;;16.56;63.66;97124.03;4882806;29;19963;-71
2022/05/09 05:39:16;;;;;;;;;;;;;;;16.76;62.77;97116.44;4882834;29;19960;-71
2022/05/09 05:41:43;;;;;;;;;;;;;;;16.98;62.64;97121.03;4882818;29;19964;-71
2022/05/09 05:44:11;;;;;;;;;;;;;;;17.20;62.13;97110.50;4882487;29;19956;-71
2022/05/09 05:46:41;;;;;;;;;;;;;;;17.40;60.82;97102.78;4882845;29;19963;-71
2022/05/09 05:49:08;;;;;;;;;;;;;;;17.59;60.45;97100.66;4882675;29;19971;-71
2022/05/09 05:51:36;;;;;;;;;;;;;;;17.77;60.20;97099.53;4882460;29;19961;-71
2022/05/09 05:54:02;;;;;;;;;;;;;;;17.97;59.76;97092.88;4882871;29;19965;-71
2022/05/09 05:56:28;;;;;;;;;;;;;;;18.13;59.33;97094.66;4882544;29;19962;-72
2022/05/09 05:58:54;;;;;;;;;;;;;;;18.27;59.22;97092.41;4882003;29;20012;-71
2022/05/09 06:01:22;;;;;;;;;;;;;;;18.42;58.82;97089.09;4882510;29;20000;-71
2022/05/09 06:03:48;;;;;;;;;;;;;;;18.57;57.94;97085.75;4882472;29;19955;-71
2022/05/09 06:06:15;;;;;;;;;;;;;;;18.64;58.15;97092.44;4882381;29;19964;-71
2022/05/09 06:08:43;;;;;;;;;;;;;;;18.66;57.62;97092.19;4882365;29;19971;-71
2022/05/09 06:11:10;;;;;;;;;;;;;;;18.65;57.88;97098.59;4882163;29;19965;-71
2022/05/09 06:13:36;;;;;;;;;;;;;;;18.71;57.61;97099.41;4882693;29;19959;-71
2022/05/09 06:16:02;;;;;;;;;;;;;;;18.79;57.42;97093.66;4882270;29;19963;-71
2022/05/09 06:18:28;;;;;;;;;;;;;;;18.88;57.84;97101.94;4882557;29;19961;-71
2022/05/09 06:20:54;;;;;;;;;;;;;;;19.03;57.03;97081.59;4882135;29;19980;-71
2022/05/09 06:23:46;;;;;;;;;;;;;;;19.22;56.06;97084.66;4788595;30;20066;-71
2022/05/09 06:26:14;;;;;;;;;;;;;;;19.35;55.40;97074.59;4788887;30;20075;-71
2022/05/09 06:28:40;;;;;;;;;;;;;;;19.47;55.66;97081.31;4788516;30;19959;-71
2022/05/09 06:31:06;;;;;;;;;;;;;;;19.61;55.46;97084.31;4788461;30;19964;-71
2022/05/09 06:33:32;;;;;;;;;;;;;;;19.74;54.75;97075.06;4788540;30;20468;-71
2022/05/09 06:35:58;;;;;;;;;;;;;;;19.83;54.97;97083.34;4880235;29;20672;-71
2022/05/09 06:38:27;;;;;;;;;;;;;;;19.92;54.35;97076.44;4881880;29;20006;-71
2022/05/09 06:40:54;;;;;;;;;;;;;;;19.98;54.03;97077.25;4880382;29;19949;-71
2022/05/09 06:43:22;;;;;;;;;;;;;;;20.03;54.19;97083.41;4882002;29;19961;-71
2022/05/09 06:45:49;;;;;;;;;;;;;;;20.09;54.11;97084.19;4881593;29;19982;-71
2022/05/09 06:48:15;;;;;;;;;;;;;;;20.11;54.13;97079.41;4881534;29;19962;-71
2022/05/09 06:50:42;;;;;;;;;;;;;;;20.18;54.30;97073.81;4881179;29;19962;-70
2022/05/09 06:53:09;;;;;;;;;;;;;;;20.27;53.82;97081.03;4881640;29;19965;-71
2022/05/09 06:55:35;;;;;;;;;;;;;;;20.43;53.58;97075.72;4881533;29;19950;-71
2022/05/09 06:58:05;;;;;;;;;;;;;;;20.50;53.06;97064.81;4881484;29;20367;-71
2022/05/09 07:00:31;;;;;;;;;;;;;;;20.56;52.94;97063.75;4877638;29;19962;-71
2022/05/09 07:02:57;;;;;;;;;;;;;;;20.56;52.20;97061.88;4881354;29;20412;-71
2022/05/09 07:05:23;;;;;;;;;;;;;;;20.63;52.92;97077.63;4868539;29;19966;-71
2022/05/09 07:07:49;;;;;;;;;;;;;;;20.74;51.61;97052.56;4880982;29;19983;-71
2022/05/09 07:10:15;;;;;;;;;;;;;;;20.72;52.43;97065.38;4881147;29;19956;-71
2022/05/09 07:12:43;;;;;;;;;;;;;;;20.74;51.04;97049.13;4871551;29;19963;-71
2022/05/09 07:15:09;;;;;;;;;;;;;;;20.69;52.11;97065.91;4881230;29;19965;-71
2022/05/09 07:17:35;;;;;;;;;;;;;;;20.60;51.14;97062.16;4887379;29;20426;-71
2022/05/09 07:20:01;;;;;;;;;;;;;;;20.55;51.58;97070.94;4881779;29;20026;-71
2022/05/09 07:22:27;;;;;;;;;;;;;;;20.62;52.43;97073.34;4889470;29;20298;-71
2022/05/09 07:24:53;;;;;;;;;;;;;;;20.78;53.54;97090.16;4886686;29;20019;-71
2022/05/09 07:27:19;;;;;;;;;;;;;;;20.82;50.94;97067.22;4890969;29;20042;-71
2022/05/09 07:29:44;;;;;;;;;;;;;;;20.91;51.99;97070.16;4889477;29;19952;-71
2022/05/09 07:32:10;;;;;;;;;;;;;;;20.90;51.38;97065.91;4893535;29;20465;-71
2022/05/09 07:34:36;;;;;;;;;;;;;;;20.76;50.77;97054.97;4887051;29;19958;-71
2022/05/09 07:37:02;;;;;;;;;;;;;;;20.72;50.00;97059.25;4886000;29;19961;-71
2022/05/09 07:39:28;;;;;;;;;;;;;;;20.71;50.62;97069.09;4890488;29;20445;-71
2022/05/09 07:41:54;;;;;;;;;;;;;;;20.80;51.82;97077.34;4888993;29;19963;-71
2022/05/09 07:44:20;;;;;;;;;;;;;;;20.93;51.73;97066.13;4894160;29;19964;-71
2022/05/09 07:46:45;;;;;;;;;;;;;;;21.07;51.18;97061.06;4883883;29;19973;-71
2022/05/09 07:49:11;;;;;;;;;;;;;;;21.04;50.00;97050.91;4888756;29;19965;-71
2022/05/09 07:51:37;;;;;;;;;;;;;;;20.99;51.17;97061.59;4889984;29;19976;-71
2022/05/09 07:54:04;;;;;;;;;;;;;;;21.04;51.41;97066.91;4890600;29;19968;-71
2022/05/09 07:56:30;;;;;;;;;;;;;;;21.18;50.67;97057.28;4890963;29;19961;-71
2022/05/09 07:58:56;;;;;;;;;;;;;;;21.27;50.64;97058.34;4889121;29;19955;-71
2022/05/09 08:01:21;;;;;;;;;;;;;;;21.33;50.09;97060.97;4888253;29;20018;-71
2022/05/09 08:03:47;;;;;;;;;;;;;;;21.37;49.98;97065.50;4890008;29;19962;-71
2022/05/09 08:06:13;;;;;;;;;;;;;;;21.44;49.81;97073.25;4890834;29;19968;-71
2022/05/09 08:08:40;;;;;;;;;;;;;;;21.43;50.10;97083.13;4886039;29;19973;-71
2022/05/09 08:11:06;;;;;;;;;;;;;;;21.43;48.11;97063.66;4892910;29;19985;-71
2022/05/09 08:13:34;;;;;;;;;;;;;;;21.56;50.86;97100.44;4893697;29;20419;-71
2022/05/09 08:16:02;;;;;;;;;;;;;;;21.64;48.56;97081.19;4890572;29;19981;-71
2022/05/09 08:18:29;;;;;;;;;;;;;;;21.47;45.80;97078.06;4890022;29;19960;-71
2022/05/09 08:20:57;;;;;;;;;;;;;;;21.20;47.48;97083.69;4882587;29;19984;-71
2022/05/09 08:23:23;;;;;;;;;;;;;;;20.88;46.31;97079.50;4879297;29;20015;-71
2022/05/09 08:25:50;;;;;;;;;;;;;;;20.86;49.50;97110.94;4879158;29;19961;-71
2022/05/09 08:28:17;;;;;;;;;;;;;;;20.64;48.44;97089.88;4879289;29;20408;-71
2022/05/09 08:30:44;;;;;;;;;;;;;;;20.18;51.03;97138.56;4879285;29;19966;-71
2022/05/09 08:33:14;;;;;;;;;;;;;;;20.18;51.71;97151.06;4879375;29;19949;-71
2022/05/09 08:35:42;;;;;;;;;;;;;;;20.07;50.11;97121.75;4878557;29;19975;-71
2022/05/09 08:38:08;;;;;;;;;;;;;;;20.00;49.61;97121.19;4879191;29;20323;-71
2022/05/09 08:40:35;;;;;;;;;;;;;;;19.95;49.09;97123.03;4879250;29;19968;-71
2022/05/09 08:43:14;;;;;;;;;;;;;;;19.92;50.56;97120.91;4878965;29;19962;-71
2022/05/09 08:45:43;;;;;;;;;;;;;;;20.05;51.19;97134.53;4879532;29;19952;-71
2022/05/09 08:48:15;;;;;;;;;;;;;;;20.04;51.06;97138.25;4878829;29;19988;-71
2022/05/09 08:50:50;;;;;;;;;;;;;;;20.28;52.82;97156.41;4879062;29;20314;-71
2022/05/09 08:53:22;;;;;;;;;;;;;;;20.53;48.36;97098.91;4878887;29;20414;-71
2022/05/09 08:55:48;;;;;;;;;;;;;;;20.70;50.21;97123.47;4879168;29;19981;-71
2022/05/09 08:58:21;;;;;;;;;;;;;;;20.85;47.97;97096.81;4879365;29;19963;-71
2022/05/09 09:00:49;;;;;;;;;;;;;;;21.03;48.84;97108.00;4878842;29;20406;-71
2022/05/09 09:03:15;;;;;;;;;;;;;;;21.14;47.51;97093.56;4879111;29;19956;-71
2022/05/09 09:05:44;;;;;;;;;;;;;;;21.24;49.00;97116.78;4878775;29;19962;-71
2022/05/09 09:08:16;;;;;;;;;;;;;;;21.38;49.36;97117.03;4878842;29;19976;-71
2022/05/09 09:10:48;;;;;;;;;;;;;;;21.23;47.44;97097.31;4878892;29;19957;-71
2022/05/09 09:13:19;;;;;;;;;;;;;;;21.24;47.65;97106.09;4878820;29;20326;-71
2022/05/09 09:15:45;;;;;;;;;;;;;;;21.24;48.57;97117.56;4878742;29;20406;-71
2022/05/09 09:18:20;;;;;;;;;;;;;;;21.33;47.00;97104.47;4878700;29;19963;-71
2022/05/09 09:20:55;;;;;;;;;;;;;;;21.33;46.65;97095.66;4815588;29;1853270;-71
2022/05/09 09:23:36;;;;;;;;;;;;;;;21.16;47.36;97102.09;4879841;29;19972;-71
2022/05/09 09:26:22;;;;;;;;;;;;;;;20.78;48.14;97119.47;4879498;29;19960;-70
2022/05/09 09:29:41;;;;;;;;;;;;;;;20.46;47.98;97118.63;4836642;29;20092;-71
2022/05/09 09:32:09;;;;;;;;;;;;;;;20.23;49.53;97135.09;4831109;29;19987;-71
2022/05/09 09:34:39;;;;;;;;;;;;;;;20.14;49.32;97129.50;4828293;29;19959;-70
2022/05/09 09:37:05;;;;;;;;;;;;;;;20.24;48.37;97126.03;4837608;29;19971;-71
2022/05/09 09:39:31;;;;;;;;;;;;;;;20.59;50.03;97130.66;4878880;29;19959;-71
2022/05/09 09:41:57;;;;;;;;;;;;;;;21.01;49.85;97132.25;4868980;29;20021;-71
2022/05/09 09:44:24;;;;;;;;;;;;;;;21.20;47.93;97108.50;4879709;29;19977;-71
2022/05/09 09:47:02;;;;;;;;;;;;;;;21.01;45.14;97072.81;4879476;29;19971;-71
2022/05/09 09:49:28;;;;;;;;;;;;;;;20.95;46.24;97088.00;4882554;29;19970;-71
2022/05/09 09:51:54;;;;;;;;;;;;;;;20.98;47.45;97121.34;4882734;29;19970;-71
2022/05/09 09:54:22;;;;;;;;;;;;;;;21.20;47.17;97121.84;4882773;29;20017;-71
2022/05/09 09:56:49;;;;;;;;;;;;;;;21.07;46.98;97109.06;4882575;29;19968;-71
2022/05/09 09:59:18;;;;;;;;;;;;;;;21.01;46.58;97105.59;4882791;29;19963;-71
2022/05/09 10:01:59;;;;;;;;;;;;;;;21.02;46.77;97093.88;4882750;29;19966;-71
2022/05/09 10:04:26;;;;;;;;;;;;;;;20.75;46.85;97101.38;4882418;29;19966;-71
2022/05/09 10:07:06;;;;;;;;;;;;;;;20.54;46.45;97096.00;4882743;29;19987;-71
2022/05/09 10:09:39;;;;;;;;;;;;;;;20.46;48.88;97123.16;4882309;29;20323;-71
2022/05/09 10:12:19;;;;;;;;;;;;;;;20.43;48.63;97127.16;4882372;29;19959;-70
2022/05/09 10:14:45;;;;;;;;;;;;;;;20.41;48.15;97115.97;4882376;29;19948;-71
2022/05/09 10:17:13;;;;;;;;;;;;;;;20.42;47.55;97104.22;4882174;29;20463;-70
2022/05/09 10:19:39;;;;;;;;;;;;;;;20.44;48.26;97110.09;4882074;29;19980;-71
2022/05/09 10:25:03;;;;;;;;;;;;;;;20.57;48.78;97114.09;4887649;29;19959;-71
2022/05/09 10:27:31;;;;;;;;;;;;;;;20.59;47.87;97111.22;4894589;29;19971;-71
2022/05/09 10:29:59;;;;;;;;;;;;;;;20.48;46.87;97092.53;4891711;29;19954;-71
2022/05/09 10:32:28;;;;;;;;;;;;;;;20.45;46.28;97090.41;4892710;29;19958;-71
2022/05/09 10:34:58;;;;;;;;;;;;;;;20.53;47.57;97098.91;4891158;29;20434;-71
2022/05/09 10:37:27;;;;;;;;;;;;;;;20.50;46.70;97084.28;4888850;29;19953;-71
2022/05/09 10:39:59;;;;;;;;;;;;;;;20.40;46.32;97086.94;4893678;29;19963;-71
2022/05/09 10:42:34;;;;;;;;;;;;;;;20.29;47.41;97099.44;4896161;29;19958;-70
2022/05/09 10:45:04;;;;;;;;;;;;;;;20.39;46.59;97091.47;4892045;29;19965;-70
2022/05/09 10:47:49;;;;;;;;;;;;;;;20.50;46.64;97089.59;4889723;29;19974;-71
2022/05/09 10:50:22;;;;;;;;;;;;;;;20.76;47.43;97097.63;4877742;29;19969;-71
2022/05/09 10:52:55;;;;;;;;;;;;;;;20.93;47.44;97094.69;4872782;29;20439;-71
2022/05/09 10:55:33;;;;;;;;;;;;;;;20.94;45.78;97072.28;4890864;29;20330;-71
2022/05/09 10:58:05;;;;;;;;;;;;;;;20.87;45.94;97067.22;4887417;29;19961;-71
2022/05/09 11:00:32;;;;;;;;;;;;;;;20.50;44.01;97054.16;4888467;29;19978;-71
2022/05/09 11:03:04;;;;;;;;;;;;;;;20.32;45.92;97077.59;4890141;29;19956;-71
2022/05/09 11:05:38;;;;;;;;;;;;;;;20.41;45.16;97059.19;4872242;29;19960;-71
2022/05/09 11:08:17;;;;;;;;;;;;;;;20.66;46.28;97077.91;4891087;29;19981;-71
2022/05/09 11:10:56;;;;;;;;;;;;;;;20.75;46.65;97075.50;4887400;29;19966;-71
2022/05/09 11:13:25;;;;;;;;;;;;;;;20.74;46.17;97070.44;4892183;29;19963;-71
2022/05/09 11:15:57;;;;;;;;;;;;;;;20.64;44.60;97053.41;4893885;29;19958;-71
2022/05/09 11:18:26;;;;;;;;;;;;;;;20.73;44.85;97056.31;4889273;29;19961;-71
2022/05/09 11:21:11;;;;;;;;;;;;;;;20.86;44.70;97047.75;4882902;29;19986;-71
2022/05/09 11:23:46;;;;;;;;;;;;;;;21.27;46.09;97063.69;4881167;29;20313;-71
2022/05/09 11:26:22;;;;;;;;;;;;;;;21.74;46.24;97060.88;4881200;29;19958;-71
2022/05/09 11:29:04;;;;;;;;;;;;;;;22.06;43.63;97031.03;4880830;29;20367;-71
2022/05/09 11:31:38;;;;;;;;;;;;;;;22.42;45.63;97057.53;4881088;29;20436;-71
2022/05/09 11:34:22;;;;;;;;;;;;;;;22.53;41.92;97016.25;4880894;29;19954;-71
2022/05/09 11:37:14;;;;;;;;;;;;;;;22.60;41.09;97003.38;4880283;29;19968;-71
2022/05/09 11:39:53;;;;;;;;;;;;;;;22.43;39.97;97081.31;4859153;29;19961;-71
2022/05/09 11:45:26;;;;;;;;;;;;;;;22.52;43.66;97102.09;4880852;29;19956;-71
2022/05/09 11:47:51;;;;;;;;;;;;;;;22.83;42.82;97089.28;4880695;29;20462;-71
2022/05/09 11:50:23;;;;;;;;;;;;;;;23.09;40.53;97071.91;4880545;29;19965;-71
2022/05/09 11:52:48;;;;;;;;;;;;;;;22.79;41.78;97081.00;4880530;29;19983;-71
2022/05/09 11:55:19;;;;;;;;;;;;;;;22.59;41.66;97089.19;4880914;29;19965;-71
2022/05/09 11:57:53;;;;;;;;;;;;;;;22.77;41.74;97085.84;4880403;29;20330;-71
2022/05/09 12:00:25;;;;;;;;;;;;;;;22.75;39.90;97066.59;4880637;29;19963;-71
2022/05/09 12:02:54;;;;;;;;;;;;;;;22.50;41.10;97078.31;4880447;29;19954;-71
2022/05/09 12:05:40;;;;;;;;;;;;;;;22.54;42.92;97111.44;4880243;29;20370;-71
2022/05/09 12:08:09;;;;;;;;;;;;;;;22.66;39.08;97087.03;4880079;29;19970;-71
2022/05/09 12:10:38;;;;;;;;;;;;;;;22.79;41.33;97098.94;4880574;29;19967;-71
2022/05/09 12:13:04;;;;;;;;;;;;;;;22.86;41.42;97099.41;4880418;29;19960;-71
2022/05/09 12:15:33;;;;;;;;;;;;;;;22.65;39.31;97086.19;4879244;29;19965;-71
2022/05/09 12:18:00;;;;;;;;;;;;;;;22.34;40.84;97090.97;4880339;29;19952;-71
2022/05/09 12:20:27;;;;;;;;;;;;;;;22.20;40.78;97098.78;4884339;29;20377;-71
2022/05/09 12:23:00;;;;;;;;;;;;;;;22.31;39.58;97083.53;4885893;29;19962;-71
2022/05/09 12:25:40;;;;;;;;;;;;;;;22.24;39.26;97078.50;4888356;29;20437;-71
2022/05/09 12:28:20;;;;;;;;;;;;;;;22.54;40.55;97084.69;4889493;29;20372;-71
2022/05/09 12:30:53;;;;;;;;;;;;;;;22.75;39.46;97079.97;4888329;29;19962;-71
2022/05/09 12:33:22;;;;;;;;;;;;;;;22.58;39.46;97077.72;4890947;29;19961;-71
2022/05/09 12:35:49;;;;;;;;;;;;;;;22.40;39.20;97076.50;4888193;29;19958;-71
2022/05/09 12:38:20;;;;;;;;;;;;;;;22.32;39.81;97084.31;4894622;29;19956;-71
2022/05/09 12:40:46;;;;;;;;;;;;;;;22.14;40.11;97083.88;4888639;29;19960;-71
2022/05/09 12:43:39;;;;;;;;;;;;;;;21.97;40.35;97086.13;4872397;29;19967;-71
2022/05/09 12:46:06;;;;;;;;;;;;;;;21.82;40.35;97071.75;4884071;29;19964;-71
2022/05/09 12:48:35;;;;;;;;;;;;;;;21.96;40.12;97063.13;4889946;29;19978;-70
2022/05/09 12:51:06;;;;;;;;;;;;;;;22.28;40.40;97068.06;4887325;29;19988;-71
2022/05/09 12:53:34;;;;;;;;;;;;;;;22.50;38.53;97055.03;4887192;29;19963;-71
2022/05/09 12:56:07;;;;;;;;;;;;;;;22.61;38.22;97050.41;4892977;29;19961;-71
2022/05/09 12:58:41;;;;;;;;;;;;;;;22.81;40.01;97064.69;4894854;29;19962;-71
2022/05/09 13:01:06;;;;;;;;;;;;;;;23.07;40.03;97062.59;4875601;29;20018;-71
2022/05/09 13:03:40;;;;;;;;;;;;;;;23.23;38.56;97053.31;4886972;29;19969;-71
2022/05/09 13:06:14;;;;;;;;;;;;;;;23.25;38.77;97055.72;4890951;29;19961;-71
2022/05/09 13:08:40;;;;;;;;;;;;;;;23.25;37.95;97042.34;4885964;29;19975;-71
2022/05/09 13:11:14;;;;;;;;;;;;;;;23.05;37.35;97044.13;4886909;29;19956;-71